aviador You're here:

KFYV Decoded Metar

FAYETTEVILLE in AR, USA
Report Time2017-08-23 03:53:00
UTC Time2017-08-23 04:14:49
Flight Rules vfr VFR
WindCalm
Visibility9999 m
Phenomena:N/A
Clouds:Broken 080 Hf
Broken 100 Hf
Expected CloudBase > 400 ft AGL from Temp-Dew spread
Ceiling8,000 ft
Temp24°C (ISA +11)
Dew Point23°C (94% RH)
QNH1019 hPa
Density Alt2,746 ft
Elevation1,243 ft
Report Wrong Elevation
Raw Report
KFYV 230353Z AUTO 00000KT 10SM BKN080 BKN100 24/23 A3008 RMK AO2
SLP174 T02390233=

Extra information for KFYV:More info

Metar Taf Metar & Taf Last 4 Metars F.Rules Stats Wind Profile Meteogram Temp Stats Airport Information Weather charts Add Link Nearby VenuesMetar ALERT Operation Metar Decoded Social comments

AIRNAV info for KFYV